パリ/シャルル・ド・ゴール の空港の天気 - METARとTAF

シャルル・ド・ゴール国際空港(パリ) ( LFPG / CDG ) - フランス Paris
飛行場実況気象(Metar)
観測時間05/29 00:30 CEST (05/28 22:30 UTC)
風向・風速北北東 4m/s 瞬間風速11m/s
視程10km以上
天気現象
なし
気温11℃
湿度62%
気圧1020hPa
METARLFPG 282230Z 02007G21KT 360V100 CAVOK 11/04 Q1020 NOSIG
過去の天気等 Google飛行場航空写真 Wunderground天気予報

過去48時間のMETAR

飛行場予報(TAF)
発表時間: 5/28 19:00 CEST (5/28 17:00 UTC)
予報対象時間: 28日20時 CEST ~ 30日2時 CEST
風向・風速北 5m/s
視程10km以上
なし
29日17時 CEST ~ 29日20時 CEST に 確率 30% で一時的に
風向・風速北 5m/s 瞬間風速 13m/s
少しの塔状積雲 雲底高度 1370m
TAF LFPG 281700Z 2818/2924 01010KT CAVOK TX18/2818Z TN07/2905Z
PROB30 TEMPO 2915/2918 01010G25KT FEW045TCU